Time;durP1;ratioP1;P1;durP2;ratioP2;P2;SDS_P1;SDS_P2;PMS_P1;PMS_P2;Temp;Humidity;BMP_temperature;BMP_pressure;BME280_temperature;BME280_humidity;BME280_pressure;Samples;Min_cycle;Max_cycle;Signal;HPM_P1;HPM_P2
2021/05/25 00:00:27;;;;;;;4.55;2.78;;;12.40;99.90;;;;;;5030710;28;20502;-46
2021/05/25 00:02:54;;;;;;;7.10;2.33;;;12.40;99.90;;;;;;5030562;28;20018;-46
2021/05/25 00:05:23;;;;;;;3.80;2.40;;;12.30;99.90;;;;;;5030152;28;20036;-47
2021/05/25 00:07:49;;;;;;;3.35;2.40;;;12.30;99.90;;;;;;5029699;28;20022;-47
2021/05/25 00:10:16;;;;;;;11.13;2.40;;;12.20;99.90;;;;;;5030169;28;20329;-47
2021/05/25 00:12:42;;;;;;;5.13;2.67;;;12.10;99.90;;;;;;5030474;28;20166;-46
2021/05/25 00:15:12;;;;;;;6.68;3.00;;;12.00;99.90;;;;;;5030089;28;20029;-46
2021/05/25 00:17:37;;;;;;;3.63;2.90;;;12.10;99.90;;;;;;5028794;28;20036;-45
2021/05/25 00:20:05;;;;;;;4.55;2.75;;;12.00;99.90;;;;;;5029972;28;20025;-47
2021/05/25 00:22:31;;;;;;;6.10;2.60;;;12.00;99.90;;;;;;5030409;28;20025;-46
2021/05/25 00:24:57;;;;;;;4.25;2.72;;;11.90;99.90;;;;;;5030454;28;20033;-46
2021/05/25 00:27:22;;;;;;;4.72;2.47;;;11.80;99.90;;;;;;5029638;28;20144;-46
2021/05/25 00:29:47;;;;;;;5.43;2.63;;;11.80;99.90;;;;;;5029744;28;20384;-49
2021/05/25 00:32:13;;;;;;;4.70;2.47;;;11.80;99.90;;;;;;5029826;28;20029;-47
2021/05/25 00:34:38;;;;;;;3.00;2.35;;;11.70;99.90;;;;;;5029975;28;20030;-46
2021/05/25 00:37:04;;;;;;;7.05;2.47;;;11.70;99.90;;;;;;5029821;28;20392;-47
2021/05/25 00:39:29;;;;;;;3.03;2.40;;;11.60;99.90;;;;;;5028716;28;20025;-47
2021/05/25 00:41:55;;;;;;;5.97;2.50;;;11.50;99.90;;;;;;5029704;28;20022;-47
2021/05/25 00:44:21;;;;;;;6.15;2.63;;;11.50;99.90;;;;;;5029431;28;20471;-46
2021/05/25 00:46:47;;;;;;;4.55;2.17;;;11.40;99.90;;;;;;5029749;28;20108;-46
2021/05/25 00:49:12;;;;;;;6.13;2.00;;;11.40;99.90;;;;;;5028523;28;20697;-46
2021/05/25 00:51:39;;;;;;;3.10;2.13;;;11.30;99.90;;;;;;5027782;28;20030;-47
2021/05/25 00:54:05;;;;;;;2.90;2.22;;;11.30;99.90;;;;;;5029057;28;20025;-46
2021/05/25 00:56:30;;;;;;;3.08;2.40;;;11.20;99.90;;;;;;5029574;28;20026;-48
2021/05/25 00:58:56;;;;;;;5.50;2.30;;;11.10;99.90;;;;;;5028759;28;20017;-47
2021/05/25 01:01:21;;;;;;;2.90;2.03;;;11.00;99.90;;;;;;5029375;28;20034;-46
2021/05/25 01:03:47;;;;;;;2.30;2.10;;;11.10;99.90;;;;;;5029221;28;20177;-47
2021/05/25 01:06:13;;;;;;;6.22;2.15;;;11.00;99.90;;;;;;5029285;28;20030;-47
2021/05/25 01:08:39;;;;;;;2.40;2.00;;;11.00;99.90;;;;;;5028568;28;20124;-46
2021/05/25 01:11:08;;;;;;;2.55;1.95;;;11.00;99.90;;;;;;5029465;28;20108;-47
2021/05/25 01:13:41;;;;;;;2.40;1.92;;;11.00;99.90;;;;;;5029233;28;20026;-47
2021/05/25 01:16:07;;;;;;;4.43;1.98;;;11.00;99.90;;;;;;5028991;28;20022;-47
2021/05/25 01:18:32;;;;;;;3.30;2.10;;;11.00;99.90;;;;;;5027770;28;20016;-50
2021/05/25 01:20:58;;;;;;;3.33;1.90;;;11.00;99.90;;;;;;5029164;28;20017;-47
2021/05/25 01:23:24;;;;;;;4.47;2.08;;;11.00;99.90;;;;;;5029010;28;20509;-47
2021/05/25 01:25:49;;;;;;;2.75;1.90;;;11.10;99.90;;;;;;5029227;28;20681;-46
2021/05/25 01:28:19;;;;;;;2.53;1.80;;;11.00;99.90;;;;;;5028004;28;20039;-48
2021/05/25 01:30:48;;;;;;;2.95;1.45;;;11.10;99.90;;;;;;5029124;28;20151;-46
2021/05/25 01:33:15;;;;;;;1.80;1.65;;;11.10;99.90;;;;;;5028737;28;20119;-46
2021/05/25 01:35:41;;;;;;;1.67;1.52;;;11.10;99.90;;;;;;5028808;28;20036;-47
2021/05/25 01:38:09;;;;;;;3.40;1.77;;;11.00;99.90;;;;;;5028122;28;20018;-47
2021/05/25 01:40:35;;;;;;;2.67;1.90;;;11.00;99.90;;;;;;5028958;28;20479;-46
2021/05/25 01:43:02;;;;;;;2.63;1.77;;;11.00;99.90;;;;;;5027684;28;20030;-47
2021/05/25 01:45:29;;;;;;;2.40;1.63;;;10.90;99.90;;;;;;5027360;28;20487;-47
2021/05/25 01:47:57;;;;;;;7.75;1.90;;;10.80;99.90;;;;;;5027824;28;20028;-48
2021/05/25 01:50:25;;;;;;;1.98;1.65;;;10.80;99.90;;;;;;5027583;28;20033;-47
2021/05/25 01:52:51;;;;;;;2.17;1.63;;;10.90;99.90;;;;;;5027318;28;20116;-47
2021/05/25 01:55:32;;;;;;;3.10;1.88;;;10.80;99.90;;;;;;5028424;28;20394;-47
2021/05/25 01:58:09;;;;;;;3.97;1.85;;;10.80;99.90;;;;;;5027997;28;20044;-46
2021/05/25 02:00:36;;;;;;;3.17;1.83;;;10.70;99.90;;;;;;5028532;28;20022;-46
2021/05/25 02:03:03;;;;;;;1.90;1.52;;;10.60;99.90;;;;;;5028688;28;20036;-47
2021/05/25 02:05:29;;;;;;;2.30;1.85;;;10.50;99.90;;;;;;5028393;28;20095;-46
2021/05/25 02:07:55;;;;;;;3.40;2.13;;;10.50;99.90;;;;;;5027877;28;20036;-46
2021/05/25 02:10:25;;;;;;;2.70;1.88;;;10.50;99.90;;;;;;5027146;28;20104;-47
2021/05/25 02:12:52;;;;;;;3.22;1.90;;;10.50;99.90;;;;;;5027023;28;20029;-47
2021/05/25 02:15:18;;;;;;;3.05;2.10;;;10.50;99.90;;;;;;5028083;28;20045;-47
2021/05/25 02:17:44;;;;;;;3.38;1.50;;;10.50;99.90;;;;;;5027937;28;20411;-47
2021/05/25 02:20:10;;;;;;;3.13;1.83;;;10.50;99.90;;;;;;5027513;28;20496;-46
2021/05/25 02:22:36;;;;;;;2.33;1.95;;;10.50;99.90;;;;;;5028491;28;20029;-46
2021/05/25 02:25:03;;;;;;;3.25;1.77;;;10.50;99.90;;;;;;5028273;28;20018;-47
2021/05/25 02:27:28;;;;;;;4.13;1.90;;;10.50;99.90;;;;;;5027737;28;20562;-47
2021/05/25 02:29:54;;;;;;;2.67;1.70;;;10.50;99.90;;;;;;5037868;28;20117;-47
2021/05/25 02:32:20;;;;;;;3.47;1.67;;;10.60;99.90;;;;;;5036638;28;20095;-47
2021/05/25 02:34:45;;;;;;;3.15;1.60;;;10.60;99.90;;;;;;5038250;28;20040;-46
2021/05/25 02:37:11;;;;;;;3.17;1.85;;;10.60;99.90;;;;;;5037434;28;20124;-46
2021/05/25 02:39:37;;;;;;;3.17;1.92;;;10.60;99.90;;;;;;5037071;28;20623;-46
2021/05/25 02:42:04;;;;;;;2.08;1.73;;;10.70;99.90;;;;;;5042556;28;20096;-47
2021/05/25 02:44:29;;;;;;;2.00;1.60;;;10.70;99.90;;;;;;5039242;28;20098;-48
2021/05/25 02:46:56;;;;;;;2.80;1.75;;;10.70;99.90;;;;;;5039207;28;20032;-47
2021/05/25 02:49:21;;;;;;;1.98;1.48;;;10.70;99.90;;;;;;5041147;28;20080;-46
2021/05/25 02:51:47;;;;;;;2.05;1.90;;;10.70;99.90;;;;;;5042276;28;20029;-48
2021/05/25 02:54:12;;;;;;;2.85;1.73;;;10.60;99.90;;;;;;5040843;28;20216;-47
2021/05/25 02:56:38;;;;;;;3.58;1.75;;;10.60;99.90;;;;;;5040711;28;20056;-47
2021/05/25 02:59:04;;;;;;;5.55;1.70;;;10.60;99.90;;;;;;5040094;28;20021;-46
2021/05/25 03:01:29;;;;;;;6.40;2.20;;;10.60;99.90;;;;;;5041525;28;20033;-47
2021/05/25 03:03:56;;;;;;;2.05;1.50;;;10.70;99.90;;;;;;5038706;28;20018;-47
2021/05/25 03:06:22;;;;;;;2.85;1.90;;;10.70;99.90;;;;;;5041276;28;20040;-47
2021/05/25 03:08:48;;;;;;;3.47;1.70;;;10.70;99.90;;;;;;5040606;28;20033;-48
2021/05/25 03:11:13;;;;;;;6.30;1.90;;;10.70;99.90;;;;;;5040183;28;20470;-47
2021/05/25 03:13:39;;;;;;;6.28;1.83;;;10.70;99.90;;;;;;5041923;28;20021;-50
2021/05/25 03:16:04;;;;;;;3.58;2.03;;;10.70;99.90;;;;;;5040334;28;20029;-47
2021/05/25 03:18:30;;;;;;;3.47;2.10;;;10.70;99.90;;;;;;5041558;28;20021;-47
2021/05/25 03:20:55;;;;;;;2.38;2.17;;;10.70;99.90;;;;;;5038582;28;20025;-47
2021/05/25 03:23:23;;;;;;;1.48;1.38;;;10.80;99.90;;;;;;5041382;28;20475;-47
2021/05/25 03:25:50;;;;;;;2.13;1.92;;;10.80;99.90;;;;;;5039980;28;20083;-48
2021/05/25 03:28:16;;;;;;;1.80;1.70;;;10.80;99.90;;;;;;5040025;28;20048;-47
2021/05/25 03:30:43;;;;;;;1.52;1.23;;;10.90;99.90;;;;;;5041352;28;20470;-50
2021/05/25 03:33:10;;;;;;;3.20;1.95;;;10.90;99.90;;;;;;5040025;28;20075;-49
2021/05/25 03:35:36;;;;;;;1.75;1.20;;;10.90;99.90;;;;;;5039335;28;20025;-50
2021/05/25 03:38:02;;;;;;;3.92;1.73;;;10.90;99.90;;;;;;5037681;28;20385;-46
2021/05/25 03:40:28;;;;;;;3.45;1.77;;;10.80;99.90;;;;;;5040649;28;20037;-47
2021/05/25 03:42:55;;;;;;;4.13;1.48;;;10.80;99.90;;;;;;5040396;28;20453;-46
2021/05/25 03:45:22;;;;;;;2.35;1.50;;;10.80;99.90;;;;;;5038819;28;20021;-49
2021/05/25 03:47:48;;;;;;;2.53;1.48;;;10.80;99.90;;;;;;5040182;28;20053;-47
2021/05/25 03:50:16;;;;;;;6.75;1.70;;;10.70;99.90;;;;;;5038706;28;20434;-47
2021/05/25 03:52:47;;;;;;;1.92;1.42;;;10.60;99.90;;;;;;5041100;28;20033;-46
2021/05/25 04:00:34;;;;;;;2.17;1.45;;;10.50;99.90;;;;;;5031042;28;20419;-47
2021/05/25 04:02:59;;;;;;;3.50;1.50;;;10.50;99.90;;;;;;5030745;28;20091;-47
2021/05/25 04:05:25;;;;;;;3.15;1.33;;;10.60;99.90;;;;;;5028940;28;20478;-47
2021/05/25 04:07:50;;;;;;;5.05;1.30;;;10.50;99.90;;;;;;5029951;28;20033;-47
2021/05/25 04:10:16;;;;;;;2.53;1.70;;;10.50;99.90;;;;;;5030854;28;20104;-46
2021/05/25 04:12:41;;;;;;;3.33;1.55;;;10.40;99.90;;;;;;5030875;28;20033;-46
2021/05/25 04:15:07;;;;;;;4.28;1.40;;;10.40;99.90;;;;;;5030327;28;20180;-46
2021/05/25 04:17:33;;;;;;;11.02;2.20;;;10.40;99.90;;;;;;5029615;28;20057;-47
2021/05/25 04:19:58;;;;;;;2.25;1.33;;;10.30;99.90;;;;;;5030064;28;20056;-49
2021/05/25 04:22:24;;;;;;;2.58;1.63;;;10.40;99.90;;;;;;5030191;28;20052;-46
2021/05/25 04:24:49;;;;;;;6.65;2.00;;;10.40;99.90;;;;;;5028919;28;20112;-46
2021/05/25 04:27:15;;;;;;;3.63;1.35;;;10.40;99.90;;;;;;5030261;28;20129;-47
2021/05/25 04:29:40;;;;;;;2.10;1.23;;;10.30;99.90;;;;;;5029618;28;20029;-48
2021/05/25 04:32:08;;;;;;;6.63;1.13;;;10.30;99.90;;;;;;5028547;28;20073;-49
2021/05/25 04:34:33;;;;;;;2.05;1.30;;;10.20;99.90;;;;;;5028391;28;20030;-47
2021/05/25 04:36:59;;;;;;;1.40;1.17;;;10.20;99.90;;;;;;5029687;28;20437;-47
2021/05/25 04:39:24;;;;;;;2.38;1.30;;;10.20;99.90;;;;;;5029047;28;20033;-47
2021/05/25 04:41:50;;;;;;;3.85;1.20;;;10.20;99.90;;;;;;5030003;28;20022;-46
2021/05/25 04:44:15;;;;;;;2.38;1.25;;;10.30;99.90;;;;;;5039578;28;20029;-47
2021/05/25 04:46:41;;;;;;;1.80;1.00;;;10.20;99.90;;;;;;5049474;28;20089;-47
2021/05/25 04:49:06;;;;;;;3.53;1.27;;;10.30;99.90;;;;;;5048513;28;20441;-46
2021/05/25 04:51:32;;;;;;;2.35;1.00;;;10.20;99.90;;;;;;5042157;28;20017;-47
2021/05/25 04:53:57;;;;;;;2.90;1.00;;;10.30;99.90;;;;;;5029289;28;20128;-46
2021/05/25 04:56:23;;;;;;;1.67;1.13;;;10.30;99.90;;;;;;5029091;28;20036;-49
2021/05/25 04:58:49;;;;;;;3.22;1.15;;;10.40;99.90;;;;;;5028713;28;20518;-46
2021/05/25 05:01:15;;;;;;;1.80;1.00;;;10.50;99.90;;;;;;5029292;28;20025;-46
2021/05/25 05:03:40;;;;;;;1.95;1.25;;;10.70;99.90;;;;;;5028468;28;20039;-46
2021/05/25 05:06:06;;;;;;;3.42;1.20;;;10.80;99.90;;;;;;5029227;28;20036;-48
2021/05/25 05:08:31;;;;;;;2.80;1.20;;;10.90;99.90;;;;;;5028711;28;20033;-47
2021/05/25 05:10:57;;;;;;;0.93;0.70;;;11.00;99.90;;;;;;5029012;28;20044;-46
2021/05/25 05:13:23;;;;;;;2.28;1.02;;;11.00;99.90;;;;;;5029710;28;20041;-49
2021/05/25 05:15:50;;;;;;;1.67;1.17;;;11.00;99.90;;;;;;5031282;28;20033;-47
2021/05/25 05:18:15;;;;;;;2.78;1.10;;;11.00;99.90;;;;;;5037466;28;20055;-47
2021/05/25 05:20:41;;;;;;;2.70;1.05;;;11.00;99.90;;;;;;5037735;28;20045;-48
2021/05/25 05:23:07;;;;;;;2.75;1.85;;;11.00;99.90;;;;;;5037860;28;20464;-48
2021/05/25 05:25:33;;;;;;;2.53;0.90;;;11.10;99.90;;;;;;5037340;28;20541;-47
2021/05/25 05:27:59;;;;;;;4.97;1.00;;;11.20;99.90;;;;;;5036043;28;20283;-47
2021/05/25 05:30:24;;;;;;;2.70;0.90;;;11.20;99.90;;;;;;5037934;28;20100;-49
2021/05/25 05:32:49;;;;;;;1.38;1.00;;;11.20;99.90;;;;;;5037372;28;20025;-49
2021/05/25 05:35:16;;;;;;;1.30;1.00;;;11.40;99.90;;;;;;5036747;28;20259;-47
2021/05/25 05:37:41;;;;;;;2.97;1.42;;;11.50;99.90;;;;;;5037758;28;20032;-47
2021/05/25 05:40:07;;;;;;;1.58;1.25;;;11.60;99.90;;;;;;5036315;28;20479;-49
2021/05/25 05:42:33;;;;;;;4.57;1.35;;;11.80;99.90;;;;;;5036503;28;20021;-49
2021/05/25 05:44:59;;;;;;;0.90;0.90;;;11.80;99.90;;;;;;5038260;28;20026;-47
2021/05/25 05:47:24;;;;;;;3.35;1.30;;;11.70;99.90;;;;;;5035624;28;20028;-47
2021/05/25 05:49:50;;;;;;;1.77;1.00;;;11.80;99.90;;;;;;5036565;28;20025;-48
2021/05/25 05:52:16;;;;;;;3.05;1.15;;;11.80;99.90;;;;;;5040011;28;20043;-48
2021/05/25 05:54:42;;;;;;;4.97;1.00;;;11.90;99.90;;;;;;5040183;28;20028;-47
2021/05/25 05:57:07;;;;;;;3.60;1.15;;;11.90;99.90;;;;;;5036816;28;20545;-48
2021/05/25 05:59:33;;;;;;;4.25;1.20;;;12.00;99.90;;;;;;5036534;28;20088;-49
2021/05/25 06:01:58;;;;;;;3.30;1.25;;;11.90;99.90;;;;;;5039495;28;20502;-48
2021/05/25 06:04:24;;;;;;;1.60;1.10;;;11.70;99.90;;;;;;5039280;28;20296;-47
2021/05/25 06:06:50;;;;;;;2.58;1.55;;;11.70;99.90;;;;;;5036202;28;20414;-47
2021/05/25 06:09:16;;;;;;;1.75;1.23;;;11.70;99.90;;;;;;5037407;28;20029;-49
2021/05/25 06:11:41;;;;;;;2.88;1.38;;;11.80;99.90;;;;;;5035053;28;20040;-48
2021/05/25 06:14:08;;;;;;;3.63;1.92;;;11.70;99.90;;;;;;5042797;28;20041;-47
2021/05/25 06:16:34;;;;;;;1.52;1.17;;;11.70;99.90;;;;;;5042518;28;20098;-48
2021/05/25 06:19:00;;;;;;;4.13;1.60;;;11.80;99.90;;;;;;5050642;28;20024;-47
2021/05/25 06:21:26;;;;;;;2.10;0.95;;;12.00;99.90;;;;;;5056996;28;20021;-49
2021/05/25 06:23:51;;;;;;;2.25;0.93;;;12.20;99.90;;;;;;5046382;28;20029;-47
2021/05/25 06:26:20;;;;;;;2.55;0.90;;;12.40;99.90;;;;;;5047505;28;20030;-47
2021/05/25 06:28:45;;;;;;;2.00;1.00;;;12.60;99.90;;;;;;5037023;28;20022;-47
2021/05/25 06:31:11;;;;;;;3.85;1.20;;;12.60;99.90;;;;;;5032332;28;20032;-48
2021/05/25 06:33:36;;;;;;;4.07;1.15;;;12.50;99.90;;;;;;5039814;28;20075;-47
2021/05/25 06:36:03;;;;;;;2.95;1.10;;;12.40;99.90;;;;;;5036988;28;20402;-46
2021/05/25 06:38:29;;;;;;;3.28;1.27;;;12.40;99.90;;;;;;5037535;28;20128;-46
2021/05/25 06:40:54;;;;;;;2.05;1.08;;;12.40;99.90;;;;;;5043047;28;20037;-50
2021/05/25 06:43:20;;;;;;;1.73;1.00;;;12.50;99.90;;;;;;5038882;28;20390;-47
2021/05/25 06:45:45;;;;;;;6.70;1.00;;;12.50;99.90;;;;;;5035206;28;20296;-48
2021/05/25 06:48:11;;;;;;;2.00;1.10;;;12.50;99.90;;;;;;5042067;28;20486;-48
2021/05/25 06:50:37;;;;;;;1.17;1.00;;;12.40;99.90;;;;;;5045620;28;20048;-47
2021/05/25 06:53:02;;;;;;;3.42;1.20;;;12.50;99.90;;;;;;5040572;28;20021;-48
2021/05/25 06:55:28;;;;;;;3.63;1.38;;;12.60;99.90;;;;;;5042245;28;20048;-50
2021/05/25 06:57:54;;;;;;;3.58;1.38;;;12.80;99.90;;;;;;5041811;28;20017;-47
2021/05/25 07:00:21;;;;;;;1.58;1.15;;;13.00;99.90;;;;;;5040589;28;20014;-48
2021/05/25 07:02:46;;;;;;;1.75;1.13;;;13.20;99.90;;;;;;5040687;28;20029;-48
2021/05/25 07:05:12;;;;;;;1.83;1.20;;;13.30;99.90;;;;;;5041425;28;20019;-47
2021/05/25 07:07:38;;;;;;;3.10;1.20;;;13.20;99.90;;;;;;5039546;28;20022;-49
2021/05/25 07:10:04;;;;;;;2.88;0.88;;;13.30;99.90;;;;;;5041209;28;20471;-47
2021/05/25 07:12:30;;;;;;;1.35;0.85;;;13.20;99.90;;;;;;5038611;28;20021;-47
2021/05/25 07:14:56;;;;;;;4.80;1.20;;;13.30;99.90;;;;;;5038314;28;20100;-47
2021/05/25 07:17:21;;;;;;;3.45;1.05;;;13.20;99.90;;;;;;5039966;28;20700;-50
2021/05/25 07:19:47;;;;;;;1.95;0.90;;;13.50;99.90;;;;;;5035205;28;20026;-47
2021/05/25 07:22:12;;;;;;;6.00;0.93;;;13.50;99.90;;;;;;5040321;28;20397;-48
2021/05/25 07:24:38;;;;;;;4.40;1.17;;;13.50;99.90;;;;;;5041823;28;20028;-46
2021/05/25 07:27:04;;;;;;;2.60;1.27;;;13.40;99.90;;;;;;5039603;28;20498;-46
2021/05/25 07:29:30;;;;;;;1.90;0.88;;;13.00;99.90;;;;;;5042529;28;20458;-48
2021/05/25 07:31:55;;;;;;;2.30;0.80;;;13.00;99.90;;;;;;5039240;28;20115;-47
2021/05/25 07:34:21;;;;;;;1.80;0.90;;;12.90;99.90;;;;;;5041119;28;20483;-48
2021/05/25 07:36:47;;;;;;;2.45;0.90;;;13.20;99.90;;;;;;5040596;28;20041;-47
2021/05/25 07:39:14;;;;;;;1.50;1.10;;;13.30;99.90;;;;;;5038994;28;20021;-47
2021/05/25 07:41:40;;;;;;;2.47;1.00;;;13.50;99.90;;;;;;5041521;28;20021;-47
2021/05/25 07:44:06;;;;;;;3.83;1.10;;;13.90;99.90;;;;;;5040275;28;20043;-47
2021/05/25 07:46:32;;;;;;;1.02;0.85;;;13.90;99.90;;;;;;5043689;28;20096;-47
2021/05/25 07:48:58;;;;;;;2.75;0.90;;;13.90;99.90;;;;;;5069799;28;20036;-46
2021/05/25 07:51:24;;;;;;;3.55;1.00;;;13.70;99.90;;;;;;5070475;28;20282;-47
2021/05/25 07:53:50;;;;;;;4.95;1.23;;;13.40;99.90;;;;;;5030428;28;20037;-46
2021/05/25 07:56:16;;;;;;;3.35;1.38;;;13.20;99.90;;;;;;5030460;28;20475;-46
2021/05/25 07:58:42;;;;;;;5.07;1.05;;;13.10;99.90;;;;;;5029851;28;20367;-47
2021/05/25 08:01:08;;;;;;;3.60;0.98;;;13.50;99.90;;;;;;5030623;28;20034;-46
2021/05/25 08:03:33;;;;;;;3.88;0.90;;;13.40;99.90;;;;;;5029047;28;20030;-46
2021/05/25 08:05:59;;;;;;;4.32;1.17;;;13.50;99.90;;;;;;5029869;28;20041;-47
2021/05/25 08:08:26;;;;;;;3.70;1.33;;;13.40;99.90;;;;;;5029647;28;20025;-47
2021/05/25 08:10:52;;;;;;;3.55;1.10;;;13.50;99.90;;;;;;5030352;28;20030;-46
2021/05/25 08:13:17;;;;;;;6.32;1.20;;;13.80;99.90;;;;;;5030098;28;20087;-46
2021/05/25 08:15:43;;;;;;;5.40;1.20;;;13.70;99.90;;;;;;5030293;28;20415;-46
2021/05/25 08:19:02;;;;;;;1.40;1.02;;;14.10;99.90;;;;;;5027981;28;20129;-49
2021/05/25 08:20:58;;;;;;;4.05;1.25;;;14.40;99.90;;;;;;5032855;28;20464;-47
2021/05/25 08:23:23;;;;;;;2.25;0.95;;;14.80;99.60;;;;;;5030020;28;20022;-46
2021/05/25 08:25:49;;;;;;;4.13;1.30;;;15.30;97.80;;;;;;5030042;28;20044;-48
2021/05/25 08:28:15;;;;;;;3.47;1.25;;;15.50;96.90;;;;;;5029219;28;20021;-48
2021/05/25 08:30:42;;;;;;;1.08;0.60;;;15.80;93.90;;;;;;5029967;28;20529;-48
2021/05/25 08:33:10;;;;;;;5.80;1.20;;;16.20;94.10;;;;;;5029523;28;20151;-47
2021/05/25 08:35:36;;;;;;;3.88;1.10;;;16.10;93.20;;;;;;5029708;28;20036;-49
2021/05/25 08:38:04;;;;;;;2.53;0.70;;;16.30;92.50;;;;;;5029080;28;20107;-49
2021/05/25 08:40:31;;;;;;;1.42;0.80;;;16.40;91.90;;;;;;5029789;28;20025;-49
2021/05/25 08:42:57;;;;;;;1.25;0.80;;;16.40;91.90;;;;;;5030181;28;20045;-46
2021/05/25 08:45:23;;;;;;;1.20;1.08;;;16.30;91.40;;;;;;5029970;28;20108;-46
2021/05/25 08:47:51;;;;;;;1.30;1.00;;;16.30;90.10;;;;;;5028664;28;20570;-47
2021/05/25 08:50:19;;;;;;;5.32;1.25;;;15.70;90.20;;;;;;5028113;28;20255;-47
2021/05/25 08:52:45;;;;;;;1.70;0.77;;;15.20;92.10;;;;;;5029433;28;20109;-47
2021/05/25 08:55:11;;;;;;;2.53;0.80;;;15.00;94.40;;;;;;5029387;28;20096;-46
2021/05/25 08:57:38;;;;;;;0.80;0.70;;;14.70;93.70;;;;;;5029241;28;20045;-47
2021/05/25 09:00:06;;;;;;;0.93;0.50;;;14.50;94.80;;;;;;5029524;28;20021;-48
2021/05/25 09:02:31;;;;;;;2.72;0.70;;;14.30;94.70;;;;;;5029501;28;20030;-50
2021/05/25 09:05:04;;;;;;;2.22;0.60;;;13.60;96.20;;;;;;5029440;28;20091;-47
2021/05/25 09:07:44;;;;;;;1.50;0.73;;;13.60;97.60;;;;;;5028822;28;20112;-46
2021/05/25 09:10:29;;;;;;;5.35;1.00;;;13.80;99.10;;;;;;5029156;28;20032;-47
2021/05/25 09:12:54;;;;;;;2.38;0.60;;;14.40;99.70;;;;;;5029324;28;20435;-47
2021/05/25 09:15:44;;;;;;;3.85;0.85;;;15.80;98.00;;;;;;5029102;28;20030;-48
2021/05/25 09:18:14;;;;;;;1.52;0.45;;;16.70;90.00;;;;;;5028393;28;20029;-47
2021/05/25 09:20:46;;;;;;;3.65;0.85;;;17.70;82.70;;;;;;5029027;28;20106;-47
2021/05/25 09:23:13;;;;;;;2.47;0.82;;;17.50;76.60;;;;;;5028785;28;20106;-47
2021/05/25 09:26:04;;;;;;;1.25;0.70;;;16.50;80.50;;;;;;5029137;28;20025;-47
2021/05/25 09:28:31;;;;;;;3.00;0.68;;;17.30;84.00;;;;;;5028192;28;20509;-46
2021/05/25 09:30:57;;;;;;;3.92;0.70;;;17.10;82.20;;;;;;5028962;28;20108;-47
2021/05/25 09:33:23;;;;;;;1.45;0.60;;;16.80;84.90;;;;;;5029080;28;20202;-49
2021/05/25 09:35:49;;;;;;;0.70;0.50;;;16.30;86.70;;;;;;5028733;28;20025;-49
2021/05/25 09:38:18;;;;;;;1.85;0.70;;;15.60;83.70;;;;;;5028268;28;20024;-46
2021/05/25 09:40:48;;;;;;;6.32;0.93;;;15.30;90.50;;;;;;5027431;28;20159;-47
2021/05/25 09:43:17;;;;;;;;;;;15.90;86.80;;;;;;5029203;28;20490;-46
2021/05/25 09:45:57;;;;;;;2.92;0.47;;;16.80;84.90;;;;;;5028519;28;19912;-46
2021/05/25 09:48:32;;;;;;;1.17;0.40;;;17.20;80.70;;;;;;5027447;28;20033;-48
2021/05/25 09:51:00;;;;;;;1.85;0.70;;;16.90;78.00;;;;;;5028460;28;20037;-47
2021/05/25 09:53:29;;;;;;;0.70;0.60;;;16.40;80.20;;;;;;5026430;28;20021;-47
2021/05/25 09:56:00;;;;;;;0.98;0.70;;;16.10;79.50;;;;;;5028426;28;20033;-47
2021/05/25 09:58:39;;;;;;;1.38;0.70;;;15.90;80.60;;;;;;5028102;28;20021;-46
2021/05/25 10:01:06;;;;;;;0.70;0.70;;;15.80;82.60;;;;;;5029008;28;20028;-46
2021/05/25 10:03:35;;;;;;;2.53;0.40;;;15.70;84.00;;;;;;5028146;28;20030;-47
2021/05/25 10:06:01;;;;;;;2.45;0.50;;;15.50;89.20;;;;;;5028395;28;20028;-46
2021/05/25 10:08:28;;;;;;;5.47;0.65;;;14.80;92.60;;;;;;5027990;28;20025;-46
2021/05/25 10:10:57;;;;;;;1.42;0.50;;;14.30;97.20;;;;;;5028692;28;20029;-47
2021/05/25 10:13:25;;;;;;;0.65;0.45;;;13.60;99.90;;;;;;5028576;28;20033;-46
2021/05/25 10:15:51;;;;;;;0.50;0.50;;;13.20;99.90;;;;;;5028656;28;20146;-46
2021/05/25 10:20:46;;;;;;;9.57;1.75;;;12.20;99.90;;;;;;5028304;28;20359;-46
2021/05/25 10:23:12;;;;;;;6.90;1.88;;;11.80;99.90;;;;;;5026747;28;20026;-48
2021/05/25 10:25:40;;;;;;;4.75;1.10;;;11.60;99.90;;;;;;5027482;28;20037;-48
2021/05/25 10:28:11;;;;;;;1.88;0.70;;;11.40;99.90;;;;;;5027657;28;20480;-46
2021/05/25 10:30:44;;;;;;;0.93;0.90;;;11.30;99.90;;;;;;5027163;28;20107;-45
2021/05/25 10:33:09;;;;;;;1.33;0.60;;;11.60;99.90;;;;;;5028264;28;20043;-46
2021/05/25 10:35:58;;;;;;;1.05;0.60;;;11.90;99.90;;;;;;5026995;28;20504;-46
2021/05/25 10:38:31;;;;;;;2.30;0.70;;;12.30;99.90;;;;;;5027633;28;20028;-47
2021/05/25 10:40:59;;;;;;;1.65;0.50;;;12.30;99.90;;;;;;5027558;28;20093;-46
2021/05/25 10:43:45;;;;;;;1.10;0.60;;;12.10;99.90;;;;;;5027711;28;20099;-45
2021/05/25 10:46:14;;;;;;;2.65;0.70;;;11.90;99.90;;;;;;5035682;28;20031;-49
2021/05/25 10:48:58;;;;;;;0.50;0.50;;;12.00;99.90;;;;;;5036589;28;20029;-46
2021/05/25 10:51:49;;;;;;;1.63;0.52;;;12.50;99.90;;;;;;5037592;28;20060;-46
2021/05/25 10:54:27;;;;;;;;;;;14.30;99.90;;;;;;5036130;28;20163;-46
2021/05/25 10:56:53;;;;;;;0.85;0.50;;;15.70;99.90;;;;;;5027863;28;20323;-46
2021/05/25 10:59:20;;;;;;;1.05;0.52;;;17.10;99.90;;;;;;5026272;28;20563;-47
2021/05/25 11:01:59;;;;;;;1.27;0.60;;;17.40;99.90;;;;;;5035935;28;20268;-48
2021/05/25 11:04:37;;;;;;;0.52;0.50;;;17.20;99.90;;;;;;5039698;28;20441;-48
2021/05/25 11:07:35;;;;;;;0.55;0.55;;;16.40;99.90;;;;;;5042504;28;20033;-47
2021/05/25 11:10:25;;;;;;;0.55;0.50;;;15.50;99.90;;;;;;5045607;28;20229;-48
2021/05/25 11:13:14;;;;;;;0.93;0.73;;;15.30;99.90;;;;;;5051272;28;20036;-47
2021/05/25 11:16:20;;;;;;;2.75;0.40;;;15.50;99.90;;;;;;5051121;28;20276;-49
2021/05/25 11:19:10;;;;;;;0.68;0.40;;;15.90;99.90;;;;;;5030700;28;20383;-49
2021/05/25 11:21:59;;;;;;;0.30;0.30;;;16.30;99.90;;;;;;5042371;28;20120;-46
2021/05/25 11:24:32;;;;;;;1.30;1.20;;;17.20;99.10;;;;;;5040685;28;20034;-46
2021/05/25 11:27:05;;;;;;;0.38;0.38;;;16.60;98.90;;;;;;5040344;28;20490;-47
2021/05/25 11:29:36;;;;;;;0.63;0.47;;;16.10;99.90;;;;;;5039214;28;20067;-46
2021/05/25 11:32:22;;;;;;;0.55;0.40;;;15.80;99.20;;;;;;5041454;28;20117;-47
2021/05/25 11:34:59;;;;;;;0.43;0.40;;;16.00;99.90;;;;;;5039647;28;20128;-47
2021/05/25 11:37:26;;;;;;;0.57;0.55;;;16.60;98.30;;;;;;5040310;28;20025;-47
2021/05/25 11:39:53;;;;;;;2.03;0.40;;;17.90;97.20;;;;;;5039527;28;20021;-47
2021/05/25 11:42:29;;;;;;;0.60;0.50;;;18.60;93.20;;;;;;5040863;28;20021;-47
2021/05/25 11:44:55;;;;;;;2.05;0.43;;;19.50;90.10;;;;;;5040936;28;20445;-47
2021/05/25 11:47:22;;;;;;;0.90;0.60;;;19.30;84.50;;;;;;5046928;28;20078;-50
2021/05/25 11:49:48;;;;;;;0.40;0.40;;;18.50;90.30;;;;;;5050470;28;20036;-46
2021/05/25 11:52:25;;;;;;;0.68;0.40;;;17.60;90.60;;;;;;5050446;28;20025;-47
2021/05/25 11:54:54;;;;;;;1.15;0.50;;;17.30;91.80;;;;;;5038904;28;20025;-47
2021/05/25 11:57:30;;;;;;;0.50;0.50;;;16.50;93.70;;;;;;5037615;28;20067;-47
2021/05/25 11:59:57;;;;;;;0.47;0.40;;;16.00;94.20;;;;;;5040260;28;20391;-46
2021/05/25 12:02:28;;;;;;;2.88;0.40;;;15.40;93.80;;;;;;5039606;28;20017;-47
2021/05/25 12:05:10;;;;;;;0.45;0.40;;;14.50;95.20;;;;;;5039627;28;20051;-47
2021/05/25 12:07:37;;;;;;;0.50;0.38;;;13.50;98.40;;;;;;5048255;28;20528;-46
2021/05/25 12:10:14;;;;;;;0.40;0.40;;;12.90;99.90;;;;;;5040493;28;20026;-46
2021/05/25 12:12:43;;;;;;;0.30;0.30;;;12.50;99.90;;;;;;5039565;28;20025;-47
2021/05/25 12:15:27;;;;;;;1.75;0.60;;;12.20;99.90;;;;;;5039135;28;20115;-45
2021/05/25 12:17:54;;;;;;;0.57;0.57;;;11.80;99.90;;;;;;5040262;28;20021;-45
2021/05/25 12:20:22;;;;;;;0.40;0.40;;;11.40;99.90;;;;;;5040323;28;20033;-46
2021/05/25 12:22:53;;;;;;;1.40;0.45;;;11.30;99.90;;;;;;5038682;28;20021;-45
2021/05/25 12:25:22;;;;;;;2.58;0.50;;;11.20;99.90;;;;;;5041042;28;20104;-45
2021/05/25 12:27:50;;;;;;;1.63;0.55;;;11.00;99.90;;;;;;5040453;28;20399;-45
2021/05/25 12:30:18;;;;;;;0.50;0.50;;;10.80;99.90;;;;;;5039061;28;20051;-45
2021/05/25 12:32:44;;;;;;;2.08;0.50;;;10.80;99.90;;;;;;5040131;28;20021;-45
2021/05/25 12:35:11;;;;;;;0.40;0.35;;;10.70;99.90;;;;;;5036209;28;20064;-45
2021/05/25 12:37:37;;;;;;;1.20;0.60;;;10.70;99.90;;;;;;5038488;28;20041;-45
2021/05/25 12:40:11;;;;;;;0.50;0.50;;;11.00;99.90;;;;;;5040890;28;20049;-46
2021/05/25 12:42:41;;;;;;;0.68;0.68;;;11.00;99.90;;;;;;5030038;28;20037;-46
2021/05/25 12:45:08;;;;;;;0.63;0.60;;;11.40;99.90;;;;;;5038419;28;20021;-47
2021/05/25 12:47:55;;;;;;;0.50;0.50;;;11.50;99.90;;;;;;5041938;28;20223;-46
2021/05/25 12:50:26;;;;;;;0.40;0.40;;;11.60;99.90;;;;;;5030127;28;20029;-46
2021/05/25 12:53:14;;;;;;;1.88;0.65;;;12.10;99.90;;;;;;5047528;28;20025;-46
2021/05/25 12:55:52;;;;;;;0.30;0.30;;;12.50;99.90;;;;;;5038044;28;20079;-45
2021/05/25 12:58:35;;;;;;;1.77;0.60;;;12.80;99.90;;;;;;5036305;28;20671;-46
2021/05/25 13:01:39;;;;;;;0.68;0.43;;;13.60;99.90;;;;;;5037278;28;20471;-46